createdAt,value
2023-04-27T00:02:44.719Z,99.90
2023-04-27T00:06:48.039Z,99.90
2023-04-27T00:10:51.207Z,99.90
2023-04-27T00:14:54.534Z,99.90
2023-04-27T00:18:59.128Z,99.90
2023-04-27T00:23:02.365Z,99.90
2023-04-27T00:27:05.897Z,99.90
2023-04-27T00:31:09.180Z,99.90
2023-04-27T00:35:14.023Z,99.90
2023-04-27T00:39:17.811Z,99.90
2023-04-27T00:43:21.257Z,99.90
2023-04-27T00:47:24.483Z,99.90
2023-04-27T00:51:30.418Z,99.90
2023-04-27T00:55:33.625Z,99.90
2023-04-27T00:59:36.970Z,99.90
2023-04-27T01:03:40.269Z,99.90
2023-04-27T01:07:45.049Z,99.90
2023-04-27T01:11:48.649Z,99.90
2023-04-27T01:15:51.851Z,99.90
2023-04-27T01:19:56.856Z,99.90
2023-04-27T01:24:01.586Z,99.90
2023-04-27T01:28:04.933Z,99.90
2023-04-27T01:32:08.207Z,99.90
2023-04-27T01:36:12.236Z,99.90
2023-04-27T01:40:17.226Z,99.90
2023-04-27T01:44:23.022Z,99.90
2023-04-27T01:48:26.328Z,99.90
2023-04-27T01:52:29.528Z,99.90
2023-04-27T01:56:35.382Z,99.90
2023-04-27T02:00:38.545Z,99.90
2023-04-27T02:04:43.480Z,99.90
2023-04-27T02:08:47.053Z,99.90
2023-04-27T02:12:51.682Z,99.90
2023-04-27T02:16:55.098Z,99.90
2023-04-27T02:20:58.313Z,99.90
2023-04-27T02:25:01.765Z,99.90
2023-04-27T02:29:06.464Z,99.90
2023-04-27T02:33:10.268Z,99.90
2023-04-27T02:37:13.526Z,99.90
2023-04-27T02:41:18.821Z,99.90
2023-04-27T02:45:23.361Z,99.90
2023-04-27T02:49:26.787Z,99.90
2023-04-27T02:53:30.035Z,99.90
2023-04-27T02:57:33.408Z,99.90
2023-04-27T03:01:38.145Z,99.90
2023-04-27T03:05:41.577Z,99.90
2023-04-27T03:09:44.931Z,99.90
2023-04-27T03:13:48.289Z,99.90
2023-04-27T03:17:52.943Z,99.90
2023-04-27T03:21:56.444Z,99.90
2023-04-27T03:25:59.580Z,99.90
2023-04-27T03:30:04.546Z,99.90
2023-04-27T03:34:09.113Z,99.90
2023-04-27T03:38:12.382Z,99.90
2023-04-27T03:42:15.544Z,99.90
2023-04-27T03:46:18.996Z,99.90
2023-04-27T03:50:23.590Z,99.90
2023-04-27T03:54:27.008Z,99.90
2023-04-27T03:58:30.146Z,99.90
2023-04-27T04:02:33.797Z,99.90
2023-04-27T04:06:38.487Z,99.90
2023-04-27T04:10:42.867Z,99.90
2023-04-27T04:14:48.952Z,99.90
2023-04-27T04:18:52.387Z,99.90
2023-04-27T04:22:56.875Z,99.90
2023-04-27T04:27:00.157Z,99.90
2023-04-27T04:31:03.509Z,99.90
2023-04-27T04:35:07.286Z,99.90
2023-04-27T04:39:12.763Z,99.90
2023-04-27T04:43:16.259Z,99.90
2023-04-27T04:47:19.400Z,99.90
2023-04-27T04:51:22.920Z,99.90
2023-04-27T04:55:29.319Z,99.90
2023-04-27T04:59:35.091Z,99.90
2023-04-27T05:03:38.909Z,99.90
2023-04-27T05:07:42.233Z,99.90
2023-04-27T05:11:46.976Z,99.90
2023-04-27T05:15:50.288Z,99.90
2023-04-27T05:19:53.838Z,99.90
2023-04-27T05:23:57.171Z,99.90
2023-04-27T05:28:01.954Z,99.90
2023-04-27T05:32:06.544Z,99.90
2023-04-27T05:36:11.055Z,99.90
2023-04-27T05:40:16.624Z,99.90
2023-04-27T05:44:21.353Z,99.90
2023-04-27T05:48:24.659Z,99.90
2023-04-27T05:52:31.174Z,99.90
2023-04-27T05:56:34.610Z,99.90
2023-04-27T06:00:39.291Z,99.90
2023-04-27T06:04:42.716Z,99.90
2023-04-27T06:08:47.058Z,98.40
2023-04-27T06:12:50.190Z,98.60
2023-04-27T06:16:54.752Z,97.40
2023-04-27T06:21:02.307Z,96.70
2023-04-27T06:25:06.391Z,96.20
2023-04-27T06:29:09.756Z,95.60
2023-04-27T06:33:14.342Z,92.40
2023-04-27T06:37:17.739Z,92.10
2023-04-27T06:41:20.846Z,91.20
2023-04-27T06:45:24.394Z,91.20
2023-04-27T06:49:29.007Z,90.70
2023-04-27T06:53:33.334Z,90.10
2023-04-27T06:57:36.890Z,90.50
2023-04-27T07:01:40.230Z,87.80
2023-04-27T07:05:44.922Z,85.30
2023-04-27T07:09:48.052Z,86.40
2023-04-27T07:13:51.389Z,84.90
2023-04-27T07:17:55.232Z,84.80
2023-04-27T07:22:00.931Z,85.90
2023-04-27T07:26:04.168Z,83.70
2023-04-27T07:30:09.857Z,84.80
2023-04-27T07:34:13.107Z,85.00
2023-04-27T07:38:18.586Z,83.20
2023-04-27T07:42:23.658Z,85.60
2023-04-27T07:46:27.434Z,84.80
2023-04-27T07:50:31.107Z,85.90
2023-04-27T07:54:36.627Z,84.90
2023-04-27T07:58:39.925Z,85.00
2023-04-27T08:02:43.834Z,84.80
2023-04-27T08:06:47.960Z,83.30
2023-04-27T08:10:52.652Z,83.30
2023-04-27T08:14:56.093Z,84.10
2023-04-27T08:19:00.664Z,83.80
2023-04-27T08:23:04.126Z,84.30
2023-04-27T08:27:09.949Z,78.70
2023-04-27T08:31:14.203Z,78.10
2023-04-27T08:35:18.279Z,72.70
2023-04-27T08:39:21.853Z,71.90
2023-04-27T08:43:26.458Z,70.10
2023-04-27T08:47:41.780Z,69.70
2023-04-27T08:51:46.188Z,66.70
2023-04-27T08:55:49.573Z,65.20
2023-04-27T09:00:02.201Z,66.60
2023-04-27T09:04:07.723Z,62.00
2023-04-27T09:08:11.323Z,63.80
2023-04-27T09:12:22.020Z,61.00
2023-04-27T09:16:28.540Z,65.10
2023-04-27T09:20:33.256Z,65.10
2023-04-27T09:24:37.823Z,63.50
2023-04-27T09:28:42.811Z,65.00
2023-04-27T09:32:57.358Z,66.20
2023-04-27T09:37:00.727Z,62.80
2023-04-27T09:41:04.504Z,64.70
2023-04-27T09:45:11.014Z,62.60
2023-04-27T09:49:17.336Z,64.20
2023-04-27T09:53:24.735Z,62.30
2023-04-27T09:57:36.232Z,61.80
2023-04-27T10:01:44.701Z,62.40
2023-04-27T10:06:25.196Z,61.10
2023-04-27T10:10:28.566Z,58.10
2023-04-27T10:14:32.666Z,58.10
2023-04-27T10:18:36.267Z,58.90
2023-04-27T10:22:44.367Z,57.10
2023-04-27T10:26:49.089Z,58.70
2023-04-27T10:30:52.715Z,59.80
2023-04-27T10:35:06.437Z,59.40
2023-04-27T10:39:36.216Z,61.40
2023-04-27T10:43:47.729Z,58.00
2023-04-27T10:47:51.326Z,62.00
2023-04-27T10:51:54.969Z,62.20
2023-04-27T10:56:00.133Z,60.10
2023-04-27T11:00:05.350Z,63.10
2023-04-27T11:04:08.894Z,61.20
2023-04-27T11:08:14.137Z,58.60
2023-04-27T11:12:22.326Z,58.30
2023-04-27T11:16:28.837Z,58.10
2023-04-27T11:20:33.511Z,58.00
2023-04-27T11:24:37.204Z,61.00
2023-04-27T11:28:42.180Z,65.70
2023-04-27T11:32:45.990Z,68.00
2023-04-27T11:37:10.720Z,70.60
2023-04-27T11:41:18.352Z,72.10
2023-04-27T11:45:27.605Z,72.40
2023-04-27T11:49:31.027Z,73.20
2023-04-27T11:53:35.864Z,74.10
2023-04-27T11:57:40.852Z,71.50
2023-04-27T12:01:45.918Z,70.50
2023-04-27T12:05:51.644Z,70.00
2023-04-27T12:09:55.888Z,70.20
2023-04-27T12:14:01.168Z,73.40
2023-04-27T12:18:06.518Z,75.60
2023-04-27T12:22:10.302Z,74.30
2023-04-27T12:26:15.386Z,76.30
2023-04-27T12:30:19.496Z,74.50
2023-04-27T12:34:24.434Z,73.60
2023-04-27T12:38:33.081Z,73.40
2023-04-27T12:42:37.828Z,71.70
2023-04-27T12:46:45.281Z,71.40
2023-04-27T12:50:51.217Z,70.40
2023-04-27T12:55:00.927Z,70.00
2023-04-27T12:59:06.314Z,71.00
2023-04-27T13:03:10.121Z,71.20
2023-04-27T13:07:15.168Z,70.80
2023-04-27T13:11:18.516Z,70.70
2023-04-27T13:15:22.905Z,74.30
2023-04-27T13:19:26.450Z,69.10
2023-04-27T13:23:31.818Z,69.10
2023-04-27T13:27:35.721Z,69.60
2023-04-27T13:31:39.369Z,68.00
2023-04-27T13:35:45.839Z,67.10
2023-04-27T13:39:52.601Z,66.20
2023-04-27T13:43:56.625Z,66.40
2023-04-27T13:48:00.399Z,65.90
2023-04-27T13:52:05.183Z,65.00
2023-04-27T13:56:10.267Z,62.60
2023-04-27T14:00:15.191Z,58.90
2023-04-27T14:04:19.105Z,55.70
2023-04-27T14:08:26.169Z,53.20
2023-04-27T14:12:33.058Z,54.80
2023-04-27T14:16:36.769Z,54.20
2023-04-27T14:20:42.357Z,57.70
2023-04-27T14:24:46.991Z,63.70
2023-04-27T14:28:52.346Z,64.20
2023-04-27T14:32:58.835Z,64.00
2023-04-27T14:37:02.366Z,66.30
2023-04-27T14:41:06.221Z,69.30
2023-04-27T14:45:12.614Z,69.40
2023-04-27T14:49:16.290Z,70.50
2023-04-27T14:53:20.201Z,71.00
2023-04-27T14:57:23.931Z,69.00
2023-04-27T15:01:29.096Z,71.50
2023-04-27T15:05:32.727Z,71.40
2023-04-27T15:09:36.284Z,72.50
2023-04-27T15:13:40.027Z,70.50
2023-04-27T15:17:44.823Z,71.20
2023-04-27T15:21:49.186Z,71.80
2023-04-27T15:25:56.483Z,70.60
2023-04-27T15:30:00.333Z,74.30
2023-04-27T15:34:05.212Z,72.70
2023-04-27T15:38:11.104Z,73.90
2023-04-27T15:42:14.398Z,73.80
2023-04-27T15:46:19.085Z,74.60
2023-04-27T15:50:24.325Z,74.90
2023-04-27T15:54:28.255Z,75.30
2023-04-27T15:58:31.581Z,75.30
2023-04-27T16:02:35.397Z,74.60
2023-04-27T16:06:40.449Z,74.90
2023-04-27T16:10:44.309Z,77.00
2023-04-27T16:14:48.404Z,78.70
2023-04-27T16:18:52.345Z,78.50
2023-04-27T16:22:57.567Z,78.70
2023-04-27T16:27:01.701Z,78.30
2023-04-27T16:31:05.742Z,78.30
2023-04-27T16:35:10.181Z,79.80
2023-04-27T16:39:15.466Z,78.60
2023-04-27T16:43:19.319Z,81.70
2023-04-27T16:47:22.710Z,80.20
2023-04-27T16:51:26.879Z,81.70
2023-04-27T16:55:32.767Z,82.90
2023-04-27T16:59:36.353Z,81.80
2023-04-27T17:03:42.022Z,83.50
2023-04-27T17:07:45.676Z,85.00
2023-04-27T17:11:51.615Z,85.50
2023-04-27T17:15:55.044Z,86.70
2023-04-27T17:19:59.157Z,90.10
2023-04-27T17:24:02.455Z,90.90
2023-04-27T17:28:07.183Z,90.60
2023-04-27T17:32:10.625Z,91.80
2023-04-27T17:36:15.083Z,92.00
2023-04-27T17:40:21.001Z,92.40
2023-04-27T17:44:25.878Z,92.70
2023-04-27T17:48:29.051Z,93.00
2023-04-27T17:52:32.641Z,93.90
2023-04-27T17:56:38.993Z,94.40
2023-04-27T18:00:44.969Z,94.80
2023-04-27T18:04:48.206Z,95.50
2023-04-27T18:08:51.613Z,95.80
2023-04-27T18:12:55.202Z,96.40
2023-04-27T18:17:00.486Z,96.90
2023-04-27T18:21:03.895Z,96.90
2023-04-27T18:25:08.529Z,96.30
2023-04-27T18:29:12.268Z,95.20
2023-04-27T18:33:17.925Z,93.20
2023-04-27T18:37:21.756Z,92.60
2023-04-27T18:41:25.643Z,92.50
2023-04-27T18:45:29.922Z,91.90
2023-04-27T18:49:35.071Z,91.80
2023-04-27T18:53:38.345Z,91.70
2023-04-27T18:57:41.963Z,91.70
2023-04-27T19:01:46.688Z,92.60
2023-04-27T19:05:53.003Z,92.70
2023-04-27T19:09:56.311Z,94.30
2023-04-27T19:13:59.712Z,94.30
2023-04-27T19:18:10.681Z,94.50
2023-04-27T19:22:16.932Z,95.10
2023-04-27T19:26:21.159Z,95.60
2023-04-27T19:30:25.493Z,95.00
2023-04-27T19:34:28.747Z,94.60
2023-04-27T19:38:33.495Z,93.80
2023-04-27T19:42:37.325Z,93.50
2023-04-27T19:46:40.931Z,93.80
2023-04-27T19:50:45.392Z,94.00
2023-04-27T19:54:54.088Z,93.60
2023-04-27T19:58:57.344Z,94.40
2023-04-27T20:03:00.784Z,94.70
2023-04-27T20:07:06.037Z,95.30
2023-04-27T20:11:10.876Z,95.20
2023-04-27T20:15:14.441Z,95.50
2023-04-27T20:19:19.408Z,95.50
2023-04-27T20:23:22.846Z,95.50
2023-04-27T20:27:27.828Z,95.60
2023-04-27T20:31:31.535Z,95.10
2023-04-27T20:35:36.342Z,95.10
2023-04-27T20:39:40.042Z,94.90
2023-04-27T20:43:45.755Z,94.10
2023-04-27T20:47:49.169Z,94.60
2023-04-27T20:51:52.993Z,94.30
2023-04-27T20:55:57.180Z,94.30
2023-04-27T21:00:02.296Z,94.50
2023-04-27T21:04:05.996Z,94.50
2023-04-27T21:08:09.666Z,94.90
2023-04-27T21:12:14.689Z,94.60
2023-04-27T21:16:19.381Z,94.10
2023-04-27T21:20:22.699Z,93.70
2023-04-27T21:24:26.062Z,94.50
2023-04-27T21:28:29.632Z,94.50
2023-04-27T21:32:34.693Z,94.10
2023-04-27T21:36:37.994Z,94.40
2023-04-27T21:40:41.360Z,95.20
2023-04-27T21:44:44.535Z,94.80
2023-04-27T21:48:49.595Z,94.80
2023-04-27T21:52:52.805Z,94.90
2023-04-27T21:57:10.081Z,94.60
2023-04-27T22:01:14.311Z,95.30
2023-04-27T22:05:21.156Z,94.90
2023-04-27T22:09:24.541Z,94.70
2023-04-27T22:13:27.749Z,94.80
2023-04-27T22:17:31.390Z,94.70
2023-04-27T22:21:36.018Z,95.60
2023-04-27T22:25:39.135Z,95.10
2023-04-27T22:29:42.304Z,95.00
2023-04-27T22:33:45.538Z,95.40
2023-04-27T22:37:50.314Z,95.40
2023-04-27T22:41:53.494Z,96.20
2023-04-27T22:45:56.728Z,95.80
2023-04-27T22:50:01.361Z,95.80
2023-04-27T22:54:06.185Z,96.40
2023-04-27T22:58:10.000Z,96.70
2023-04-27T23:02:13.385Z,96.50
2023-04-27T23:06:16.704Z,96.70
2023-04-27T23:10:21.532Z,96.70
2023-04-27T23:14:25.942Z,96.40
2023-04-27T23:18:29.243Z,97.00
2023-04-27T23:22:32.890Z,96.70
2023-04-27T23:26:37.395Z,96.40
2023-04-27T23:30:40.795Z,96.20
2023-04-27T23:34:44.045Z,96.50
2023-04-27T23:38:47.407Z,96.60
2023-04-27T23:42:52.566Z,96.40
2023-04-27T23:46:55.881Z,97.30
2023-04-27T23:51:02.793Z,96.90
2023-04-27T23:55:07.264Z,97.50
2023-04-27T23:59:11.921Z,98.20
